sensor_id;sensor_type;location;lat;lon;timestamp;P1;P2;P0
77699;PMS5003;66867;42.658;23.320;2023-07-29T00:00:00;8;8;
77699;PMS5003;66867;42.658;23.320;2023-07-29T00:01:00;11;10;
77699;PMS5003;66867;42.658;23.320;2023-07-29T00:02:00;13;12;
77699;PMS5003;66867;42.658;23.320;2023-07-29T00:03:00;9;9;
77699;PMS5003;66867;42.658;23.320;2023-07-29T00:04:00;11;10;
77699;PMS5003;66867;42.658;23.320;2023-07-29T00:05:00;9;9;
77699;PMS5003;66867;42.658;23.320;2023-07-29T00:06:00;10;9;
77699;PMS5003;66867;42.658;23.320;2023-07-29T00:07:00;11;11;
77699;PMS5003;66867;42.658;23.320;2023-07-29T00:08:00;12;12;
77699;PMS5003;66867;42.658;23.320;2023-07-29T00:09:00;11;11;
77699;PMS5003;66867;42.658;23.320;2023-07-29T00:10:00;12;12;
77699;PMS5003;66867;42.658;23.320;2023-07-29T00:11:00;10;10;
77699;PMS5003;66867;42.658;23.320;2023-07-29T00:12:00;10;10;
77699;PMS5003;66867;42.658;23.320;2023-07-29T00:13:00;11;11;
77699;PMS5003;66867;42.658;23.320;2023-07-29T00:14:01;10;10;
77699;PMS5003;66867;42.658;23.320;2023-07-29T00:15:00;11;11;
77699;PMS5003;66867;42.658;23.320;2023-07-29T00:16:00;11;11;
77699;PMS5003;66867;42.658;23.320;2023-07-29T00:17:00;10;10;
77699;PMS5003;66867;42.658;23.320;2023-07-29T00:18:00;11;11;
77699;PMS5003;66867;42.658;23.320;2023-07-29T00:19:00;9;9;
77699;PMS5003;66867;42.658;23.320;2023-07-29T00:20:00;8;8;
77699;PMS5003;66867;42.658;23.320;2023-07-29T00:21:00;10;9;
77699;PMS5003;66867;42.658;23.320;2023-07-29T00:22:00;9;9;
77699;PMS5003;66867;42.658;23.320;2023-07-29T00:23:00;11;11;
77699;PMS5003;66867;42.658;23.320;2023-07-29T00:24:00;11;11;
77699;PMS5003;66867;42.658;23.320;2023-07-29T00:25:00;9;9;
77699;PMS5003;66867;42.658;23.320;2023-07-29T00:26:00;10;10;
77699;PMS5003;66867;42.658;23.320;2023-07-29T00:27:00;10;10;
77699;PMS5003;66867;42.658;23.320;2023-07-29T00:28:00;11;11;
77699;PMS5003;66867;42.658;23.320;2023-07-29T00:29:00;10;10;
77699;PMS5003;66867;42.658;23.320;2023-07-29T00:30:00;11;11;
77699;PMS5003;66867;42.658;23.320;2023-07-29T00:31:01;11;11;
77699;PMS5003;66867;42.658;23.320;2023-07-29T00:32:00;10;10;
77699;PMS5003;66867;42.658;23.320;2023-07-29T00:33:00;10;10;
77699;PMS5003;66867;42.658;23.320;2023-07-29T00:34:00;11;10;
77699;PMS5003;66867;42.658;23.320;2023-07-29T00:35:00;9;9;
77699;PMS5003;66867;42.658;23.320;2023-07-29T00:36:00;11;11;
77699;PMS5003;66867;42.658;23.320;2023-07-29T00:37:00;12;11;
77699;PMS5003;66867;42.658;23.320;2023-07-29T00:38:00;11;11;
77699;PMS5003;66867;42.658;23.320;2023-07-29T00:39:00;14;12;
77699;PMS5003;66867;42.658;23.320;2023-07-29T00:40:00;10;10;
77699;PMS5003;66867;42.658;23.320;2023-07-29T00:41:02;10;10;
77699;PMS5003;66867;42.658;23.320;2023-07-29T00:42:00;11;11;
77699;PMS5003;66867;42.658;23.320;2023-07-29T00:43:00;15;14;
77699;PMS5003;66867;42.658;23.320;2023-07-29T00:44:00;9;9;
77699;PMS5003;66867;42.658;23.320;2023-07-29T00:45:00;13;13;
77699;PMS5003;66867;42.658;23.320;2023-07-29T00:46:00;12;12;
77699;PMS5003;66867;42.658;23.320;2023-07-29T00:47:02;11;11;
77699;PMS5003;66867;42.658;23.320;2023-07-29T00:48:01;14;13;
77699;PMS5003;66867;42.658;23.320;2023-07-29T00:49:00;12;12;
77699;PMS5003;66867;42.658;23.320;2023-07-29T00:50:01;12;12;
77699;PMS5003;66867;42.658;23.320;2023-07-29T00:51:00;12;12;
77699;PMS5003;66867;42.658;23.320;2023-07-29T00:52:00;12;12;
77699;PMS5003;66867;42.658;23.320;2023-07-29T00:53:00;12;12;
77699;PMS5003;66867;42.658;23.320;2023-07-29T00:54:00;13;12;
77699;PMS5003;66867;42.658;23.320;2023-07-29T00:55:00;13;12;
77699;PMS5003;66867;42.658;23.320;2023-07-29T00:56:00;13;12;
77699;PMS5003;66867;42.658;23.320;2023-07-29T00:57:00;11;11;
77699;PMS5003;66867;42.658;23.320;2023-07-29T00:58:00;10;10;
77699;PMS5003;66867;42.658;23.320;2023-07-29T00:59:01;11;11;
77699;PMS5003;66867;42.658;23.320;2023-07-29T01:00:01;11;10;
77699;PMS5003;66867;42.658;23.320;2023-07-29T01:01:00;11;10;
77699;PMS5003;66867;42.658;23.320;2023-07-29T01:02:00;11;11;
77699;PMS5003;66867;42.658;23.320;2023-07-29T01:03:00;13;12;
77699;PMS5003;66867;42.658;23.320;2023-07-29T01:04:00;11;10;
77699;PMS5003;66867;42.658;23.320;2023-07-29T01:05:01;11;11;
77699;PMS5003;66867;42.658;23.320;2023-07-29T01:06:09;11;11;
77699;PMS5003;66867;42.658;23.320;2023-07-29T01:07:07;9;9;
77699;PMS5003;66867;42.658;23.320;2023-07-29T01:08:07;11;11;
77699;PMS5003;66867;42.658;23.320;2023-07-29T01:09:04;12;11;
77699;PMS5003;66867;42.658;23.320;2023-07-29T01:10:02;12;12;
77699;PMS5003;66867;42.658;23.320;2023-07-29T01:11:09;13;13;
77699;PMS5003;66867;42.658;23.320;2023-07-29T01:12:06;13;13;
77699;PMS5003;66867;42.658;23.320;2023-07-29T01:13:06;12;12;
77699;PMS5003;66867;42.658;23.320;2023-07-29T01:14:05;11;11;
77699;PMS5003;66867;42.658;23.320;2023-07-29T01:15:19;12;12;
77699;PMS5003;66867;42.658;23.320;2023-07-29T01:16:05;10;10;
77699;PMS5003;66867;42.658;23.320;2023-07-29T01:17:03;11;11;
77699;PMS5003;66867;42.658;23.320;2023-07-29T01:18:11;13;12;
77699;PMS5003;66867;42.658;23.320;2023-07-29T01:19:05;10;10;
77699;PMS5003;66867;42.658;23.320;2023-07-29T01:20:04;11;11;
77699;PMS5003;66867;42.658;23.320;2023-07-29T01:21:04;12;12;
77699;PMS5003;66867;42.658;23.320;2023-07-29T01:22:01;10;10;
77699;PMS5003;66867;42.658;23.320;2023-07-29T01:23:00;13;12;
77699;PMS5003;66867;42.658;23.320;2023-07-29T01:24:00;11;10;
77699;PMS5003;66867;42.658;23.320;2023-07-29T01:25:00;13;12;
77699;PMS5003;66867;42.658;23.320;2023-07-29T01:26:01;11;11;
77699;PMS5003;66867;42.658;23.320;2023-07-29T01:27:00;13;12;
77699;PMS5003;66867;42.658;23.320;2023-07-29T01:28:00;12;11;
77699;PMS5003;66867;42.658;23.320;2023-07-29T01:29:00;10;9;
77699;PMS5003;66867;42.658;23.320;2023-07-29T01:30:01;10;10;
77699;PMS5003;66867;42.658;23.320;2023-07-29T01:31:09;12;12;
77699;PMS5003;66867;42.658;23.320;2023-07-29T01:32:11;11;11;
77699;PMS5003;66867;42.658;23.320;2023-07-29T01:33:07;13;12;
77699;PMS5003;66867;42.658;23.320;2023-07-29T01:35:07;13;12;
77699;PMS5003;66867;42.658;23.320;2023-07-29T01:36:03;10;10;
77699;PMS5003;66867;42.658;23.320;2023-07-29T01:37:02;12;11;
77699;PMS5003;66867;42.658;23.320;2023-07-29T01:38:07;13;12;
77699;PMS5003;66867;42.658;23.320;2023-07-29T01:39:02;12;11;
77699;PMS5003;66867;42.658;23.320;2023-07-29T01:40:00;11;10;
77699;PMS5003;66867;42.658;23.320;2023-07-29T01:41:02;11;11;
77699;PMS5003;66867;42.658;23.320;2023-07-29T01:42:00;12;12;
77699;PMS5003;66867;42.658;23.320;2023-07-29T01:43:00;11;10;
77699;PMS5003;66867;42.658;23.320;2023-07-29T01:44:01;10;10;
77699;PMS5003;66867;42.658;23.320;2023-07-29T01:45:00;12;12;
77699;PMS5003;66867;42.658;23.320;2023-07-29T01:46:00;10;10;
77699;PMS5003;66867;42.658;23.320;2023-07-29T01:47:00;14;12;
77699;PMS5003;66867;42.658;23.320;2023-07-29T01:48:00;12;12;
77699;PMS5003;66867;42.658;23.320;2023-07-29T01:49:00;11;11;
77699;PMS5003;66867;42.658;23.320;2023-07-29T01:50:00;11;11;
77699;PMS5003;66867;42.658;23.320;2023-07-29T01:51:00;12;12;
77699;PMS5003;66867;42.658;23.320;2023-07-29T01:52:00;14;14;
77699;PMS5003;66867;42.658;23.320;2023-07-29T01:53:00;13;13;
77699;PMS5003;66867;42.658;23.320;2023-07-29T01:54:00;15;13;
77699;PMS5003;66867;42.658;23.320;2023-07-29T01:55:00;14;13;
77699;PMS5003;66867;42.658;23.320;2023-07-29T01:56:01;14;13;
77699;PMS5003;66867;42.658;23.320;2023-07-29T01:57:00;11;11;
77699;PMS5003;66867;42.658;23.320;2023-07-29T01:58:00;13;13;
77699;PMS5003;66867;42.658;23.320;2023-07-29T01:59:00;13;13;
77699;PMS5003;66867;42.658;23.320;2023-07-29T02:00:00;13;13;
77699;PMS5003;66867;42.658;23.320;2023-07-29T02:01:00;15;13;
77699;PMS5003;66867;42.658;23.320;2023-07-29T02:02:00;12;12;
77699;PMS5003;66867;42.658;23.320;2023-07-29T02:03:00;13;12;
77699;PMS5003;66867;42.658;23.320;2023-07-29T02:04:00;15;14;
77699;PMS5003;66867;42.658;23.320;2023-07-29T02:05:00;14;14;
77699;PMS5003;66867;42.658;23.320;2023-07-29T02:06:00;14;14;
77699;PMS5003;66867;42.658;23.320;2023-07-29T02:07:00;13;12;
77699;PMS5003;66867;42.658;23.320;2023-07-29T02:08:00;14;14;
77699;PMS5003;66867;42.658;23.320;2023-07-29T02:09:00;13;11;
77699;PMS5003;66867;42.658;23.320;2023-07-29T02:10:00;13;13;
77699;PMS5003;66867;42.658;23.320;2023-07-29T02:11:00;13;13;
77699;PMS5003;66867;42.658;23.320;2023-07-29T02:12:00;14;14;
77699;PMS5003;66867;42.658;23.320;2023-07-29T02:13:00;13;13;
77699;PMS5003;66867;42.658;23.320;2023-07-29T02:14:00;12;12;
77699;PMS5003;66867;42.658;23.320;2023-07-29T02:15:00;13;12;
77699;PMS5003;66867;42.658;23.320;2023-07-29T02:16:00;14;13;
77699;PMS5003;66867;42.658;23.320;2023-07-29T02:17:00;16;15;
77699;PMS5003;66867;42.658;23.320;2023-07-29T02:18:00;14;13;
77699;PMS5003;66867;42.658;23.320;2023-07-29T02:19:00;15;14;
77699;PMS5003;66867;42.658;23.320;2023-07-29T02:20:00;14;14;
77699;PMS5003;66867;42.658;23.320;2023-07-29T02:21:00;15;13;
77699;PMS5003;66867;42.658;23.320;2023-07-29T02:22:00;14;14;
77699;PMS5003;66867;42.658;23.320;2023-07-29T02:23:00;12;12;
77699;PMS5003;66867;42.658;23.320;2023-07-29T02:24:00;13;13;
77699;PMS5003;66867;42.658;23.320;2023-07-29T02:25:00;14;14;
77699;PMS5003;66867;42.658;23.320;2023-07-29T02:26:00;15;15;
77699;PMS5003;66867;42.658;23.320;2023-07-29T02:27:00;15;14;
77699;PMS5003;66867;42.658;23.320;2023-07-29T02:28:00;14;14;
77699;PMS5003;66867;42.658;23.320;2023-07-29T02:29:00;12;12;
77699;PMS5003;66867;42.658;23.320;2023-07-29T02:30:00;15;15;
77699;PMS5003;66867;42.658;23.320;2023-07-29T02:31:20;12;12;
77699;PMS5003;66867;42.658;23.320;2023-07-29T02:32:00;13;13;
77699;PMS5003;66867;42.658;23.320;2023-07-29T02:33:00;12;12;
77699;PMS5003;66867;42.658;23.320;2023-07-29T02:34:00;14;13;
77699;PMS5003;66867;42.658;23.320;2023-07-29T02:35:00;13;13;
77699;PMS5003;66867;42.658;23.320;2023-07-29T02:36:00;12;12;
77699;PMS5003;66867;42.658;23.320;2023-07-29T02:37:00;12;12;
77699;PMS5003;66867;42.658;23.320;2023-07-29T02:38:00;13;13;
77699;PMS5003;66867;42.658;23.320;2023-07-29T02:39:00;16;15;
77699;PMS5003;66867;42.658;23.320;2023-07-29T02:40:00;14;13;
77699;PMS5003;66867;42.658;23.320;2023-07-29T02:41:00;14;14;
77699;PMS5003;66867;42.658;23.320;2023-07-29T02:42:00;15;14;
77699;PMS5003;66867;42.658;23.320;2023-07-29T02:43:00;13;13;
77699;PMS5003;66867;42.658;23.320;2023-07-29T02:44:01;16;16;
77699;PMS5003;66867;42.658;23.320;2023-07-29T02:45:00;15;15;
77699;PMS5003;66867;42.658;23.320;2023-07-29T02:46:00;14;14;
77699;PMS5003;66867;42.658;23.320;2023-07-29T02:47:00;12;11;
77699;PMS5003;66867;42.658;23.320;2023-07-29T02:48:00;13;12;
77699;PMS5003;66867;42.658;23.320;2023-07-29T02:49:01;13;12;
77699;PMS5003;66867;42.658;23.320;2023-07-29T02:50:00;13;13;
77699;PMS5003;66867;42.658;23.320;2023-07-29T02:51:00;16;15;
77699;PMS5003;66867;42.658;23.320;2023-07-29T02:52:00;14;14;
77699;PMS5003;66867;42.658;23.320;2023-07-29T02:53:00;13;13;
77699;PMS5003;66867;42.658;23.320;2023-07-29T02:54:00;17;13;
77699;PMS5003;66867;42.658;23.320;2023-07-29T02:55:00;17;17;
77699;PMS5003;66867;42.658;23.320;2023-07-29T02:56:00;15;14;
77699;PMS5003;66867;42.658;23.320;2023-07-29T02:57:00;18;16;
77699;PMS5003;66867;42.658;23.320;2023-07-29T02:58:00;14;13;
77699;PMS5003;66867;42.658;23.320;2023-07-29T02:59:00;15;14;
77699;PMS5003;66867;42.658;23.320;2023-07-29T03:00:00;15;14;
77699;PMS5003;66867;42.658;23.320;2023-07-29T03:01:01;15;15;
77699;PMS5003;66867;42.658;23.320;2023-07-29T03:02:00;12;12;
77699;PMS5003;66867;42.658;23.320;2023-07-29T03:03:00;14;14;
77699;PMS5003;66867;42.658;23.320;2023-07-29T03:04:00;12;12;
77699;PMS5003;66867;42.658;23.320;2023-07-29T03:05:00;14;14;
77699;PMS5003;66867;42.658;23.320;2023-07-29T03:06:02;12;12;
77699;PMS5003;66867;42.658;23.320;2023-07-29T03:07:00;14;14;
77699;PMS5003;66867;42.658;23.320;2023-07-29T03:08:00;14;13;
77699;PMS5003;66867;42.658;23.320;2023-07-29T03:09:00;15;13;
77699;PMS5003;66867;42.658;23.320;2023-07-29T03:10:00;12;12;
77699;PMS5003;66867;42.658;23.320;2023-07-29T03:11:09;15;15;
77699;PMS5003;66867;42.658;23.320;2023-07-29T03:12:00;12;12;
77699;PMS5003;66867;42.658;23.320;2023-07-29T03:13:00;14;14;
77699;PMS5003;66867;42.658;23.320;2023-07-29T03:14:00;15;15;
77699;PMS5003;66867;42.658;23.320;2023-07-29T03:15:00;12;12;
77699;PMS5003;66867;42.658;23.320;2023-07-29T03:17:03;14;13;
77699;PMS5003;66867;42.658;23.320;2023-07-29T03:18:00;14;14;
77699;PMS5003;66867;42.658;23.320;2023-07-29T03:19:00;15;15;
77699;PMS5003;66867;42.658;23.320;2023-07-29T03:20:00;15;14;
77699;PMS5003;66867;42.658;23.320;2023-07-29T03:21:00;15;14;
77699;PMS5003;66867;42.658;23.320;2023-07-29T03:22:00;14;13;
77699;PMS5003;66867;42.658;23.320;2023-07-29T03:23:00;12;11;
77699;PMS5003;66867;42.658;23.320;2023-07-29T03:24:00;11;10;
77699;PMS5003;66867;42.658;23.320;2023-07-29T03:25:00;12;12;
77699;PMS5003;66867;42.658;23.320;2023-07-29T03:26:01;14;14;
77699;PMS5003;66867;42.658;23.320;2023-07-29T03:27:00;16;15;
77699;PMS5003;66867;42.658;23.320;2023-07-29T03:28:00;16;15;
77699;PMS5003;66867;42.658;23.320;2023-07-29T03:29:00;12;11;
77699;PMS5003;66867;42.658;23.320;2023-07-29T03:30:00;11;11;
77699;PMS5003;66867;42.658;23.320;2023-07-29T03:31:00;15;15;
77699;PMS5003;66867;42.658;23.320;2023-07-29T03:32:00;13;13;
77699;PMS5003;66867;42.658;23.320;2023-07-29T03:33:00;12;12;
77699;PMS5003;66867;42.658;23.320;2023-07-29T03:34:00;14;14;
77699;PMS5003;66867;42.658;23.320;2023-07-29T03:35:00;13;13;
77699;PMS5003;66867;42.658;23.320;2023-07-29T03:36:00;18;16;
77699;PMS5003;66867;42.658;23.320;2023-07-29T03:37:00;19;19;
77699;PMS5003;66867;42.658;23.320;2023-07-29T03:38:00;16;15;
77699;PMS5003;66867;42.658;23.320;2023-07-29T03:39:00;12;12;
77699;PMS5003;66867;42.658;23.320;2023-07-29T03:40:00;15;15;
77699;PMS5003;66867;42.658;23.320;2023-07-29T03:41:00;14;14;
77699;PMS5003;66867;42.658;23.320;2023-07-29T03:42:00;15;14;
77699;PMS5003;66867;42.658;23.320;2023-07-29T03:43:00;16;16;
77699;PMS5003;66867;42.658;23.320;2023-07-29T03:44:00;15;15;
77699;PMS5003;66867;42.658;23.320;2023-07-29T03:45:00;16;15;
77699;PMS5003;66867;42.658;23.320;2023-07-29T03:46:00;17;15;
77699;PMS5003;66867;42.658;23.320;2023-07-29T03:47:00;16;16;
77699;PMS5003;66867;42.658;23.320;2023-07-29T03:48:00;14;13;
77699;PMS5003;66867;42.658;23.320;2023-07-29T03:49:00;13;12;
77699;PMS5003;66867;42.658;23.320;2023-07-29T03:50:00;14;14;
77699;PMS5003;66867;42.658;23.320;2023-07-29T03:51:00;14;14;
77699;PMS5003;66867;42.658;23.320;2023-07-29T03:52:00;14;14;
77699;PMS5003;66867;42.658;23.320;2023-07-29T03:53:00;13;13;
77699;PMS5003;66867;42.658;23.320;2023-07-29T03:54:00;14;13;
77699;PMS5003;66867;42.658;23.320;2023-07-29T03:55:00;15;15;
77699;PMS5003;66867;42.658;23.320;2023-07-29T03:56:00;15;14;
77699;PMS5003;66867;42.658;23.320;2023-07-29T03:57:00;16;16;
77699;PMS5003;66867;42.658;23.320;2023-07-29T03:58:00;16;15;
77699;PMS5003;66867;42.658;23.320;2023-07-29T03:59:02;15;14;
77699;PMS5003;66867;42.658;23.320;2023-07-29T04:00:00;15;15;
77699;PMS5003;66867;42.658;23.320;2023-07-29T04:01:00;14;14;
77699;PMS5003;66867;42.658;23.320;2023-07-29T04:02:00;14;14;
77699;PMS5003;66867;42.658;23.320;2023-07-29T04:03:00;15;14;
77699;PMS5003;66867;42.658;23.320;2023-07-29T04:04:00;14;14;
77699;PMS5003;66867;42.658;23.320;2023-07-29T04:05:00;14;14;
77699;PMS5003;66867;42.658;23.320;2023-07-29T04:06:00;15;13;
77699;PMS5003;66867;42.658;23.320;2023-07-29T04:07:00;17;16;
77699;PMS5003;66867;42.658;23.320;2023-07-29T04:08:00;12;12;
77699;PMS5003;66867;42.658;23.320;2023-07-29T04:09:00;14;14;
77699;PMS5003;66867;42.658;23.320;2023-07-29T04:10:00;15;15;
77699;PMS5003;66867;42.658;23.320;2023-07-29T04:11:00;14;13;
77699;PMS5003;66867;42.658;23.320;2023-07-29T04:12:01;16;15;
77699;PMS5003;66867;42.658;23.320;2023-07-29T04:13:00;17;15;
77699;PMS5003;66867;42.658;23.320;2023-07-29T04:14:00;15;15;
77699;PMS5003;66867;42.658;23.320;2023-07-29T04:15:00;15;15;
77699;PMS5003;66867;42.658;23.320;2023-07-29T04:16:00;14;14;
77699;PMS5003;66867;42.658;23.320;2023-07-29T04:17:00;16;15;
77699;PMS5003;66867;42.658;23.320;2023-07-29T04:18:00;16;15;
77699;PMS5003;66867;42.658;23.320;2023-07-29T04:19:00;13;13;
77699;PMS5003;66867;42.658;23.320;2023-07-29T04:20:00;15;14;
77699;PMS5003;66867;42.658;23.320;2023-07-29T04:21:00;14;13;
77699;PMS5003;66867;42.658;23.320;2023-07-29T04:22:00;14;14;
77699;PMS5003;66867;42.658;23.320;2023-07-29T04:23:00;14;14;
77699;PMS5003;66867;42.658;23.320;2023-07-29T04:24:00;15;15;
77699;PMS5003;66867;42.658;23.320;2023-07-29T04:25:00;15;14;
77699;PMS5003;66867;42.658;23.320;2023-07-29T04:26:00;14;14;
77699;PMS5003;66867;42.658;23.320;2023-07-29T04:27:00;17;16;
77699;PMS5003;66867;42.658;23.320;2023-07-29T04:28:00;15;15;
77699;PMS5003;66867;42.658;23.320;2023-07-29T04:29:00;15;15;
77699;PMS5003;66867;42.658;23.320;2023-07-29T04:30:00;18;18;
77699;PMS5003;66867;42.658;23.320;2023-07-29T04:31:00;16;15;
77699;PMS5003;66867;42.658;23.320;2023-07-29T04:32:00;18;18;
77699;PMS5003;66867;42.658;23.320;2023-07-29T04:33:00;18;17;
77699;PMS5003;66867;42.658;23.320;2023-07-29T04:34:00;16;15;
77699;PMS5003;66867;42.658;23.320;2023-07-29T04:35:00;16;15;
77699;PMS5003;66867;42.658;23.320;2023-07-29T04:36:00;17;16;
77699;PMS5003;66867;42.658;23.320;2023-07-29T04:37:00;16;16;
77699;PMS5003;66867;42.658;23.320;2023-07-29T04:38:00;15;15;
77699;PMS5003;66867;42.658;23.320;2023-07-29T04:39:00;15;15;
77699;PMS5003;66867;42.658;23.320;2023-07-29T04:40:00;18;18;
77699;PMS5003;66867;42.658;23.320;2023-07-29T04:41:00;19;19;
77699;PMS5003;66867;42.658;23.320;2023-07-29T04:42:00;14;14;
77699;PMS5003;66867;42.658;23.320;2023-07-29T04:43:00;15;15;
77699;PMS5003;66867;42.658;23.320;2023-07-29T04:44:00;13;13;
77699;PMS5003;66867;42.658;23.320;2023-07-29T04:45:00;13;13;
77699;PMS5003;66867;42.658;23.320;2023-07-29T04:46:00;13;12;
77699;PMS5003;66867;42.658;23.320;2023-07-29T04:47:00;12;12;
77699;PMS5003;66867;42.658;23.320;2023-07-29T04:48:00;15;15;
77699;PMS5003;66867;42.658;23.320;2023-07-29T04:49:00;14;13;
77699;PMS5003;66867;42.658;23.320;2023-07-29T04:50:00;14;14;
77699;PMS5003;66867;42.658;23.320;2023-07-29T04:51:00;15;14;
77699;PMS5003;66867;42.658;23.320;2023-07-29T04:52:00;13;13;
77699;PMS5003;66867;42.658;23.320;2023-07-29T04:53:00;13;13;
77699;PMS5003;66867;42.658;23.320;2023-07-29T04:54:00;14;13;
77699;PMS5003;66867;42.658;23.320;2023-07-29T04:55:00;15;15;
77699;PMS5003;66867;42.658;23.320;2023-07-29T04:56:00;13;13;
77699;PMS5003;66867;42.658;23.320;2023-07-29T04:57:00;13;13;
77699;PMS5003;66867;42.658;23.320;2023-07-29T04:58:00;15;15;
77699;PMS5003;66867;42.658;23.320;2023-07-29T04:59:00;13;12;
77699;PMS5003;66867;42.658;23.320;2023-07-29T05:00:00;15;15;
77699;PMS5003;66867;42.658;23.320;2023-07-29T05:01:01;12;12;
77699;PMS5003;66867;42.658;23.320;2023-07-29T05:02:00;14;14;
77699;PMS5003;66867;42.658;23.320;2023-07-29T05:03:00;14;13;
77699;PMS5003;66867;42.658;23.320;2023-07-29T05:04:00;14;14;
77699;PMS5003;66867;42.658;23.320;2023-07-29T05:05:00;13;12;
77699;PMS5003;66867;42.658;23.320;2023-07-29T05:06:00;10;10;
77699;PMS5003;66867;42.658;23.320;2023-07-29T05:07:00;11;10;
77699;PMS5003;66867;42.658;23.320;2023-07-29T05:08:00;12;12;
77699;PMS5003;66867;42.658;23.320;2023-07-29T05:09:18;14;13;
77699;PMS5003;66867;42.658;23.320;2023-07-29T05:10:00;11;11;
77699;PMS5003;66867;42.658;23.320;2023-07-29T05:11:00;14;13;
77699;PMS5003;66867;42.658;23.320;2023-07-29T05:12:00;14;14;
77699;PMS5003;66867;42.658;23.320;2023-07-29T05:13:00;13;13;
77699;PMS5003;66867;42.658;23.320;2023-07-29T05:14:00;13;12;
77699;PMS5003;66867;42.658;23.320;2023-07-29T05:15:00;13;13;
77699;PMS5003;66867;42.658;23.320;2023-07-29T05:16:00;11;11;
77699;PMS5003;66867;42.658;23.320;2023-07-29T05:17:00;11;11;
77699;PMS5003;66867;42.658;23.320;2023-07-29T05:18:00;11;11;
77699;PMS5003;66867;42.658;23.320;2023-07-29T05:19:00;11;11;
77699;PMS5003;66867;42.658;23.320;2023-07-29T05:20:00;9;9;
77699;PMS5003;66867;42.658;23.320;2023-07-29T05:21:00;14;14;
77699;PMS5003;66867;42.658;23.320;2023-07-29T05:22:00;17;16;
77699;PMS5003;66867;42.658;23.320;2023-07-29T05:23:00;17;17;
77699;PMS5003;66867;42.658;23.320;2023-07-29T05:24:00;15;15;
77699;PMS5003;66867;42.658;23.320;2023-07-29T05:25:00;15;15;
77699;PMS5003;66867;42.658;23.320;2023-07-29T05:26:00;16;16;
77699;PMS5003;66867;42.658;23.320;2023-07-29T05:27:00;15;15;
77699;PMS5003;66867;42.658;23.320;2023-07-29T05:28:00;14;14;
77699;PMS5003;66867;42.658;23.320;2023-07-29T05:29:00;15;14;
77699;PMS5003;66867;42.658;23.320;2023-07-29T05:30:00;14;13;
77699;PMS5003;66867;42.658;23.320;2023-07-29T05:31:01;15;15;
77699;PMS5003;66867;42.658;23.320;2023-07-29T05:32:00;13;13;
77699;PMS5003;66867;42.658;23.320;2023-07-29T05:33:00;13;12;
77699;PMS5003;66867;42.658;23.320;2023-07-29T05:34:00;11;11;
77699;PMS5003;66867;42.658;23.320;2023-07-29T05:35:00;12;12;
77699;PMS5003;66867;42.658;23.320;2023-07-29T05:36:00;13;13;
77699;PMS5003;66867;42.658;23.320;2023-07-29T05:37:00;13;12;
77699;PMS5003;66867;42.658;23.320;2023-07-29T05:38:00;10;10;
77699;PMS5003;66867;42.658;23.320;2023-07-29T05:39:00;15;14;
77699;PMS5003;66867;42.658;23.320;2023-07-29T05:40:00;12;12;
77699;PMS5003;66867;42.658;23.320;2023-07-29T05:41:00;13;12;
77699;PMS5003;66867;42.658;23.320;2023-07-29T05:42:00;15;14;
77699;PMS5003;66867;42.658;23.320;2023-07-29T05:43:00;16;16;
77699;PMS5003;66867;42.658;23.320;2023-07-29T05:44:00;14;13;
77699;PMS5003;66867;42.658;23.320;2023-07-29T05:45:00;13;13;
77699;PMS5003;66867;42.658;23.320;2023-07-29T05:46:00;13;12;
77699;PMS5003;66867;42.658;23.320;2023-07-29T05:47:00;13;13;
77699;PMS5003;66867;42.658;23.320;2023-07-29T05:48:00;12;11;
77699;PMS5003;66867;42.658;23.320;2023-07-29T05:49:00;12;11;
77699;PMS5003;66867;42.658;23.320;2023-07-29T05:50:00;14;14;
77699;PMS5003;66867;42.658;23.320;2023-07-29T05:51:00;14;14;
77699;PMS5003;66867;42.658;23.320;2023-07-29T05:52:00;15;14;
77699;PMS5003;66867;42.658;23.320;2023-07-29T05:53:00;13;13;
77699;PMS5003;66867;42.658;23.320;2023-07-29T05:54:00;15;14;
77699;PMS5003;66867;42.658;23.320;2023-07-29T05:55:00;11;11;
77699;PMS5003;66867;42.658;23.320;2023-07-29T05:56:00;13;12;
77699;PMS5003;66867;42.658;23.320;2023-07-29T05:57:00;15;14;
77699;PMS5003;66867;42.658;23.320;2023-07-29T05:58:00;17;16;
77699;PMS5003;66867;42.658;23.320;2023-07-29T05:59:00;15;14;
77699;PMS5003;66867;42.658;23.320;2023-07-29T06:00:00;13;12;
77699;PMS5003;66867;42.658;23.320;2023-07-29T06:01:00;12;12;
77699;PMS5003;66867;42.658;23.320;2023-07-29T06:02:00;15;15;
77699;PMS5003;66867;42.658;23.320;2023-07-29T06:03:00;15;14;
77699;PMS5003;66867;42.658;23.320;2023-07-29T06:04:01;14;13;
77699;PMS5003;66867;42.658;23.320;2023-07-29T06:05:00;14;14;
77699;PMS5003;66867;42.658;23.320;2023-07-29T06:06:00;13;12;
77699;PMS5003;66867;42.658;23.320;2023-07-29T06:07:00;15;15;
77699;PMS5003;66867;42.658;23.320;2023-07-29T06:08:00;15;14;
77699;PMS5003;66867;42.658;23.320;2023-07-29T06:09:00;15;15;
77699;PMS5003;66867;42.658;23.320;2023-07-29T06:10:00;15;14;
77699;PMS5003;66867;42.658;23.320;2023-07-29T06:11:00;14;14;
77699;PMS5003;66867;42.658;23.320;2023-07-29T06:12:00;14;13;
77699;PMS5003;66867;42.658;23.320;2023-07-29T06:13:00;16;16;
77699;PMS5003;66867;42.658;23.320;2023-07-29T06:14:00;13;13;
77699;PMS5003;66867;42.658;23.320;2023-07-29T06:15:00;13;13;
77699;PMS5003;66867;42.658;23.320;2023-07-29T06:16:00;15;14;
77699;PMS5003;66867;42.658;23.320;2023-07-29T06:17:00;17;14;
77699;PMS5003;66867;42.658;23.320;2023-07-29T06:18:00;13;13;
77699;PMS5003;66867;42.658;23.320;2023-07-29T06:19:00;11;11;
77699;PMS5003;66867;42.658;23.320;2023-07-29T06:20:00;14;14;
77699;PMS5003;66867;42.658;23.320;2023-07-29T06:21:00;13;12;
77699;PMS5003;66867;42.658;23.320;2023-07-29T06:22:00;13;13;
77699;PMS5003;66867;42.658;23.320;2023-07-29T06:23:00;14;13;
77699;PMS5003;66867;42.658;23.320;2023-07-29T06:24:00;12;12;
77699;PMS5003;66867;42.658;23.320;2023-07-29T06:25:00;16;15;
77699;PMS5003;66867;42.658;23.320;2023-07-29T06:26:00;15;14;
77699;PMS5003;66867;42.658;23.320;2023-07-29T06:27:00;18;16;
77699;PMS5003;66867;42.658;23.320;2023-07-29T06:28:00;26;25;
77699;PMS5003;66867;42.658;23.320;2023-07-29T06:29:00;23;23;
77699;PMS5003;66867;42.658;23.320;2023-07-29T06:30:00;19;19;
77699;PMS5003;66867;42.658;23.320;2023-07-29T06:31:00;18;18;
77699;PMS5003;66867;42.658;23.320;2023-07-29T06:32:00;19;19;
77699;PMS5003;66867;42.658;23.320;2023-07-29T06:33:00;14;14;